Time;durP1;ratioP1;P1;durP2;ratioP2;P2;SDS_P1;SDS_P2;PMS_P1;PMS_P2;Temp;Humidity;BMP_temperature;BMP_pressure;BME280_temperature;BME280_humidity;BME280_pressure;Samples;Min_cycle;Max_cycle;Signal;HPM_P1;HPM_P2
2024/03/28 00:01:23;;;;;;;7.13;1.90;;;8.50;99.90;;;;;;5025997;28;20052;-72
2024/03/28 00:03:50;;;;;;;7.53;1.33;;;8.60;99.90;;;;;;5045231;28;20059;-72
2024/03/28 00:06:16;;;;;;;13.70;1.25;;;8.60;99.90;;;;;;5039060;28;20475;-73
2024/03/28 00:08:42;;;;;;;5.47;1.58;;;8.60;99.90;;;;;;5043175;28;20114;-73
2024/03/28 00:11:08;;;;;;;3.28;1.17;;;8.70;99.90;;;;;;5041270;28;20053;-73
2024/03/28 00:13:34;;;;;;;9.40;1.42;;;8.60;99.90;;;;;;5045307;28;20118;-72
2024/03/28 00:16:02;;;;;;;4.53;1.40;;;8.70;99.90;;;;;;5044584;28;20072;-73
2024/03/28 00:18:28;;;;;;;6.95;1.50;;;8.70;99.90;;;;;;5045644;28;20052;-72
2024/03/28 00:20:58;;;;;;;6.05;2.10;;;8.70;99.90;;;;;;5035744;28;20475;-73
2024/03/28 00:23:24;;;;;;;4.05;1.00;;;8.70;99.90;;;;;;5044187;28;20052;-74
2024/03/28 00:25:51;;;;;;;5.80;2.20;;;8.70;99.90;;;;;;5042546;28;20052;-72
2024/03/28 00:28:17;;;;;;;4.53;1.30;;;8.70;99.90;;;;;;5043045;28;20068;-73
2024/03/28 00:30:43;;;;;;;4.88;1.05;;;8.70;99.90;;;;;;5038442;28;20148;-74
2024/03/28 00:33:09;;;;;;;9.15;1.10;;;8.80;99.90;;;;;;5042300;28;20041;-74
2024/03/28 00:35:35;;;;;;;5.70;1.20;;;8.80;99.90;;;;;;5042563;28;20057;-73
2024/03/28 00:38:01;;;;;;;6.10;1.13;;;8.80;99.90;;;;;;5041863;28;20055;-71
2024/03/28 00:40:27;;;;;;;7.22;1.33;;;8.80;99.90;;;;;;5043383;28;20488;-73
2024/03/28 00:42:53;;;;;;;3.63;1.00;;;8.80;99.90;;;;;;5039584;28;20440;-73
2024/03/28 00:45:19;;;;;;;4.45;1.85;;;8.80;99.90;;;;;;5039020;28;20114;-72
2024/03/28 00:47:45;;;;;;;4.78;1.27;;;8.80;99.90;;;;;;5040360;28;20061;-70
2024/03/28 00:50:11;;;;;;;3.90;1.10;;;8.80;99.90;;;;;;5021012;28;20118;-73
2024/03/28 00:52:36;;;;;;;5.35;1.58;;;8.80;99.90;;;;;;5035929;28;20065;-73
2024/03/28 00:55:03;;;;;;;8.20;1.15;;;8.80;99.90;;;;;;5034900;28;20501;-71
2024/03/28 00:57:29;;;;;;;7.38;1.50;;;8.80;99.90;;;;;;5040834;28;20048;-72
2024/03/28 00:59:55;;;;;;;6.68;1.30;;;8.80;99.90;;;;;;5033371;28;20060;-73
2024/03/28 01:02:21;;;;;;;8.68;1.42;;;8.80;99.90;;;;;;5035215;28;20135;-72
2024/03/28 01:04:46;;;;;;;8.85;1.70;;;8.80;99.90;;;;;;5037591;28;20048;-71
2024/03/28 01:07:12;;;;;;;7.47;0.98;;;8.80;99.90;;;;;;5025677;28;20048;-74
2024/03/28 01:09:38;;;;;;;8.85;1.45;;;8.80;99.90;;;;;;5041375;28;20059;-71
2024/03/28 01:12:04;;;;;;;6.22;1.50;;;8.80;99.90;;;;;;5041696;28;20056;-73
2024/03/28 01:14:31;;;;;;;7.60;1.50;;;8.70;99.90;;;;;;5040933;28;20056;-74
2024/03/28 01:16:56;;;;;;;10.55;1.42;;;8.70;99.90;;;;;;5021730;28;20060;-73
2024/03/28 01:19:22;;;;;;;4.13;1.25;;;8.60;99.90;;;;;;5043521;28;20057;-72
2024/03/28 01:21:48;;;;;;;4.30;1.38;;;8.60;99.90;;;;;;5043839;28;20087;-71
2024/03/28 01:24:14;;;;;;;3.92;1.10;;;8.50;99.90;;;;;;5043968;28;20589;-71
2024/03/28 01:26:39;;;;;;;10.82;1.50;;;8.50;99.90;;;;;;5042849;28;20060;-71
2024/03/28 01:29:05;;;;;;;7.85;1.35;;;8.40;99.90;;;;;;5043470;28;20055;-71
2024/03/28 01:31:31;;;;;;;6.68;1.27;;;8.50;99.90;;;;;;5042172;28;20401;-70
2024/03/28 01:33:57;;;;;;;7.28;1.23;;;8.50;99.90;;;;;;5043540;28;20063;-71
2024/03/28 01:36:23;;;;;;;8.55;1.40;;;8.50;99.90;;;;;;5044829;28;20292;-71
2024/03/28 01:38:49;;;;;;;10.70;1.50;;;8.50;99.90;;;;;;5034872;28;20049;-70
2024/03/28 01:41:15;;;;;;;4.50;1.20;;;8.50;99.90;;;;;;5038363;28;20091;-71
2024/03/28 01:43:42;;;;;;;6.80;1.20;;;8.40;99.90;;;;;;5037592;28;20049;-71
2024/03/28 01:46:07;;;;;;;6.15;1.17;;;8.40;99.90;;;;;;5042220;28;20049;-71
2024/03/28 01:48:34;;;;;;;4.55;1.20;;;8.30;99.90;;;;;;5045718;28;20064;-70
2024/03/28 01:50:59;;;;;;;5.68;1.27;;;8.20;99.90;;;;;;5051552;28;20049;-69
2024/03/28 01:53:25;;;;;;;5.57;1.63;;;8.20;99.90;;;;;;5043158;28;20257;-70
2024/03/28 01:55:51;;;;;;;6.68;1.75;;;8.10;99.90;;;;;;5042596;28;20041;-69
2024/03/28 01:58:17;;;;;;;6.47;1.13;;;8.10;99.90;;;;;;5015759;28;20083;-69
2024/03/28 02:00:43;;;;;;;2.40;0.63;;;8.00;99.90;;;;;;5022632;28;20532;-69
2024/03/28 02:03:09;;;;;;;4.78;1.08;;;8.00;99.90;;;;;;5022783;28;20063;-68
2024/03/28 02:05:35;;;;;;;2.60;0.80;;;8.00;99.90;;;;;;5044038;28;20041;-68
2024/03/28 02:08:01;;;;;;;5.50;1.13;;;8.00;99.90;;;;;;5014277;28;20048;-69
2024/03/28 02:10:28;;;;;;;2.95;0.77;;;7.90;99.90;;;;;;5041146;28;20056;-69
2024/03/28 02:12:54;;;;;;;4.57;1.23;;;7.90;99.90;;;;;;5021677;28;20526;-68
2024/03/28 02:15:20;;;;;;;2.15;0.70;;;7.80;99.90;;;;;;5029082;28;20060;-69
2024/03/28 02:17:49;;;;;;;2.03;0.50;;;7.70;99.90;;;;;;5048352;28;20052;-69
2024/03/28 02:20:16;;;;;;;0.95;0.57;;;7.70;99.90;;;;;;5046925;28;20129;-70
2024/03/28 02:22:42;;;;;;;1.98;0.43;;;7.50;99.90;;;;;;5049470;28;20114;-70
2024/03/28 02:25:07;;;;;;;1.05;0.60;;;7.50;99.90;;;;;;5043319;28;20527;-69
2024/03/28 02:27:37;;;;;;;0.43;0.30;;;7.40;99.90;;;;;;5049594;28;20072;-67
2024/03/28 02:30:10;;;;;;;2.30;1.27;;;7.30;99.90;;;;;;5035355;28;20619;-69
2024/03/28 02:32:37;;;;;;;1.25;0.55;;;7.30;99.90;;;;;;5047339;28;20477;-70
2024/03/28 02:35:06;;;;;;;2.92;0.50;;;7.30;99.90;;;;;;5046467;28;20059;-68
2024/03/28 02:37:32;;;;;;;2.40;0.60;;;7.20;99.90;;;;;;5031087;28;20044;-68
2024/03/28 02:39:58;;;;;;;1.80;0.40;;;7.20;99.90;;;;;;5045389;28;20063;-68
2024/03/28 02:42:24;;;;;;;3.35;0.60;;;7.20;99.90;;;;;;5046480;28;20447;-68
2024/03/28 02:44:50;;;;;;;2.40;0.32;;;7.20;99.90;;;;;;5030694;28;20067;-67
2024/03/28 02:47:15;;;;;;;2.95;0.70;;;7.20;99.90;;;;;;5028171;28;20441;-68
2024/03/28 02:49:41;;;;;;;3.33;0.75;;;7.20;99.90;;;;;;5029868;28;20489;-68
2024/03/28 02:52:07;;;;;;;3.65;0.60;;;7.20;99.90;;;;;;5042555;28;20409;-67
2024/03/28 02:54:33;;;;;;;9.57;1.05;;;7.20;99.90;;;;;;5016539;28;20048;-69
2024/03/28 02:57:03;;;;;;;2.65;0.60;;;7.20;99.90;;;;;;5043848;28;20084;-68
2024/03/28 02:59:29;;;;;;;3.05;0.80;;;7.20;99.90;;;;;;5037410;28;20041;-69
2024/03/28 03:01:55;;;;;;;1.38;0.77;;;7.30;99.90;;;;;;5045571;28;20118;-68
2024/03/28 03:04:21;;;;;;;3.92;0.70;;;7.20;99.90;;;;;;5029006;28;20053;-68
2024/03/28 03:06:47;;;;;;;5.25;0.70;;;7.30;99.90;;;;;;5030302;28;20060;-68
2024/03/28 03:09:13;;;;;;;5.15;1.00;;;7.20;99.90;;;;;;5043406;28;20534;-67
2024/03/28 03:11:39;;;;;;;8.05;0.65;;;7.20;99.90;;;;;;5045220;28;20056;-67
2024/03/28 03:14:04;;;;;;;4.32;0.77;;;7.20;99.90;;;;;;5044006;28;20123;-67
2024/03/28 03:16:30;;;;;;;3.10;0.50;;;7.20;99.90;;;;;;5045486;28;20771;-69
2024/03/28 03:18:56;;;;;;;7.43;0.93;;;7.20;99.90;;;;;;5029348;28;20068;-69
2024/03/28 03:21:23;;;;;;;2.33;0.65;;;7.20;99.90;;;;;;5038659;28;20048;-69
2024/03/28 03:23:50;;;;;;;11.02;1.85;;;7.20;99.90;;;;;;5045279;28;20057;-68
2024/03/28 03:26:25;;;;;;;3.80;0.47;;;7.20;99.90;;;;;;5034679;28;20578;-68
2024/03/28 03:34:35;;;;;;;4.57;0.98;;;7.10;99.90;;;;;;5029713;28;20057;-68
2024/03/28 03:37:08;;;;;;;5.55;0.93;;;7.10;99.90;;;;;;5034288;28;20385;-68
2024/03/28 03:39:34;;;;;;;10.23;1.20;;;7.00;99.90;;;;;;5024275;28;20072;-68
2024/03/28 03:41:59;;;;;;;6.15;0.93;;;6.90;99.90;;;;;;5039844;28;20123;-69
2024/03/28 03:44:30;;;;;;;9.68;3.72;;;6.70;99.90;;;;;;5044031;28;20052;-72
2024/03/28 03:46:56;;;;;;;3.78;0.52;;;6.70;99.90;;;;;;5043793;28;20061;-67
2024/03/28 03:49:22;;;;;;;3.33;0.60;;;6.70;99.90;;;;;;5041989;28;20055;-67
2024/03/28 03:51:48;;;;;;;4.63;1.20;;;6.60;99.90;;;;;;5036078;28;20564;-69
2024/03/28 03:54:14;;;;;;;10.20;0.95;;;6.50;99.90;;;;;;5046833;28;20065;-69
2024/03/28 03:56:40;;;;;;;3.03;0.75;;;6.50;99.90;;;;;;5045792;28;20049;-67
2024/03/28 03:59:06;;;;;;;5.32;0.60;;;6.50;99.90;;;;;;5030100;28;20052;-67
2024/03/28 04:01:32;;;;;;;5.20;0.70;;;6.40;99.90;;;;;;5048001;28;20384;-68
2024/03/28 04:03:58;;;;;;;28.13;1.75;;;6.40;99.90;;;;;;5045836;28;20052;-68
2024/03/28 04:06:24;;;;;;;3.25;0.55;;;6.30;99.90;;;;;;5042654;28;20094;-68
2024/03/28 04:08:50;;;;;;;9.70;3.60;;;6.30;99.90;;;;;;5043943;28;20045;-67
2024/03/28 04:11:16;;;;;;;0.88;0.47;;;6.20;99.90;;;;;;5046074;28;20049;-66
2024/03/28 04:13:42;;;;;;;7.70;0.73;;;6.20;99.90;;;;;;5045612;28;20114;-69
2024/03/28 04:16:08;;;;;;;3.08;1.73;;;6.30;99.90;;;;;;5043888;28;20056;-67
2024/03/28 04:18:34;;;;;;;5.70;0.80;;;6.10;99.90;;;;;;5045570;28;20049;-68
2024/03/28 04:21:00;;;;;;;9.65;1.55;;;6.10;99.90;;;;;;5044928;28;20037;-68
2024/03/28 04:23:26;;;;;;;3.22;0.95;;;6.00;99.90;;;;;;5045142;28;20463;-68
2024/03/28 04:28:42;;;;;;;3.38;0.60;;;6.50;99.90;;;;;;3632567;22;20169;-67
2024/03/28 04:31:08;;;;;;;1.70;0.80;;;6.10;99.90;;;;;;5006584;28;20798;-67
2024/03/28 04:33:34;;;;;;;1.65;0.40;;;5.90;99.90;;;;;;5016444;28;20087;-67
2024/03/28 04:36:00;;;;;;;3.40;0.52;;;5.90;99.90;;;;;;5013299;28;20147;-67
2024/03/28 04:38:25;;;;;;;1.98;0.50;;;5.80;99.90;;;;;;5019214;28;20079;-66
2024/03/28 04:40:51;;;;;;;8.85;1.88;;;5.80;99.90;;;;;;5022065;28;20048;-67
2024/03/28 04:43:17;;;;;;;1.50;0.52;;;5.70;99.90;;;;;;5015288;28;20179;-67
2024/03/28 04:45:43;;;;;;;5.35;0.68;;;5.70;99.90;;;;;;5023212;28;20073;-66
2024/03/28 04:48:09;;;;;;;5.18;0.40;;;5.60;99.90;;;;;;5023280;28;20363;-66
2024/03/28 04:50:34;;;;;;;5.85;0.80;;;5.60;99.90;;;;;;5014453;28;20074;-67
2024/03/28 04:53:00;;;;;;;4.65;0.60;;;5.60;99.90;;;;;;5018087;28;20135;-67
2024/03/28 04:55:26;;;;;;;6.18;0.60;;;5.50;99.90;;;;;;5015641;28;20067;-66
2024/03/28 04:57:52;;;;;;;1.27;0.22;;;5.50;99.90;;;;;;5019745;28;20080;-67
2024/03/28 05:00:17;;;;;;;5.57;0.65;;;5.40;99.90;;;;;;5022101;28;20132;-67
2024/03/28 05:02:43;;;;;;;7.32;0.65;;;5.40;99.90;;;;;;5018374;28;20053;-67
2024/03/28 05:05:09;;;;;;;3.88;0.68;;;5.40;99.90;;;;;;5019419;28;20131;-67
2024/03/28 05:07:35;;;;;;;4.10;1.02;;;5.40;99.90;;;;;;5018751;28;20041;-67
2024/03/28 05:10:04;;;;;;;2.25;0.43;;;5.40;99.90;;;;;;5010234;28;20048;-67
2024/03/28 05:12:31;;;;;;;4.45;0.60;;;5.40;99.90;;;;;;5019600;28;20067;-66
2024/03/28 05:14:57;;;;;;;3.80;0.65;;;5.40;99.90;;;;;;5022501;28;20060;-65
2024/03/28 05:17:25;;;;;;;3.63;0.85;;;5.40;99.90;;;;;;5015195;28;20832;-66
2024/03/28 05:19:51;;;;;;;5.00;0.93;;;5.40;99.90;;;;;;4988235;28;20052;-66
2024/03/28 05:22:17;;;;;;;2.65;0.43;;;5.40;99.90;;;;;;5018836;28;20061;-68
2024/03/28 05:24:43;;;;;;;5.78;0.50;;;5.40;99.90;;;;;;5020181;28;20120;-65
2024/03/28 05:27:12;;;;;;;10.13;1.95;;;5.40;99.90;;;;;;5010940;28;20118;-65
2024/03/28 05:29:41;;;;;;;3.05;0.40;;;5.40;99.90;;;;;;5010409;28;20487;-65
2024/03/28 05:32:07;;;;;;;4.60;0.55;;;5.40;99.90;;;;;;5016925;28;20061;-68
2024/03/28 05:34:33;;;;;;;3.80;0.63;;;5.40;99.90;;;;;;5000654;28;20522;-66
2024/03/28 05:36:59;;;;;;;7.28;0.95;;;5.40;99.90;;;;;;5016124;28;20171;-68
2024/03/28 05:39:25;;;;;;;3.85;0.90;;;5.40;99.90;;;;;;5021299;28;20159;-66
2024/03/28 05:41:50;;;;;;;2.80;0.70;;;5.30;99.90;;;;;;5015918;28;20561;-67
2024/03/28 05:44:16;;;;;;;8.07;1.40;;;5.30;99.90;;;;;;4998034;28;20101;-66
2024/03/28 05:46:42;;;;;;;10.52;1.08;;;5.40;99.90;;;;;;5015305;28;20194;-67
2024/03/28 05:49:08;;;;;;;3.35;0.90;;;5.40;99.90;;;;;;5019947;28;20049;-67
2024/03/28 05:51:34;;;;;;;6.82;0.90;;;5.40;99.90;;;;;;5001524;28;20106;-67
2024/03/28 05:53:59;;;;;;;8.25;0.80;;;5.30;99.90;;;;;;5021904;28;20641;-66
2024/03/28 05:56:25;;;;;;;9.95;0.98;;;5.30;99.90;;;;;;5020648;28;20090;-66
2024/03/28 05:58:51;;;;;;;3.85;1.20;;;5.30;99.90;;;;;;5020210;28;20076;-67
2024/03/28 06:01:17;;;;;;;4.53;0.50;;;5.30;99.90;;;;;;5022508;28;20563;-67
2024/03/28 06:03:43;;;;;;;8.85;2.35;;;5.30;99.90;;;;;;5037557;28;20053;-67
2024/03/28 06:06:09;;;;;;;3.78;0.80;;;5.40;99.90;;;;;;5020650;28;20094;-67
2024/03/28 06:08:36;;;;;;;6.97;1.67;;;5.60;99.90;;;;;;5018690;28;20058;-68
2024/03/28 06:11:05;;;;;;;5.25;2.55;;;5.50;99.90;;;;;;5019557;28;20472;-67
2024/03/28 06:13:31;;;;;;;7.13;1.83;;;5.50;99.90;;;;;;5019060;28;20060;-67
2024/03/28 06:15:57;;;;;;;5.97;1.25;;;5.50;99.90;;;;;;5018404;28;20506;-67
2024/03/28 06:18:26;;;;;;;7.32;0.95;;;5.50;99.90;;;;;;5020232;28;20060;-67
2024/03/28 06:21:05;;;;;;;7.80;0.80;;;5.50;99.90;;;;;;5036199;28;20048;-67
2024/03/28 06:23:31;;;;;;;4.03;0.90;;;5.60;99.90;;;;;;5017053;28;20510;-68
2024/03/28 06:25:59;;;;;;;3.55;1.13;;;5.60;99.90;;;;;;4999592;28;20589;-67
2024/03/28 06:28:26;;;;;;;2.45;0.98;;;5.60;99.90;;;;;;5009386;28;20069;-67
2024/03/28 06:30:56;;;;;;;7.28;1.02;;;5.60;99.90;;;;;;5001321;28;20069;-67
2024/03/28 06:33:22;;;;;;;8.27;0.95;;;5.60;99.90;;;;;;4991847;28;20054;-67
2024/03/28 06:35:49;;;;;;;5.85;1.52;;;5.60;99.90;;;;;;4996816;28;20050;-67
2024/03/28 06:38:15;;;;;;;4.43;1.15;;;5.60;99.90;;;;;;4977525;28;20052;-67
2024/03/28 06:40:40;;;;;;;5.68;0.75;;;5.70;99.90;;;;;;4998966;28;20046;-68
2024/03/28 06:43:06;;;;;;;4.80;1.10;;;5.70;99.90;;;;;;4998882;28;20453;-67
2024/03/28 06:45:32;;;;;;;5.88;0.88;;;5.80;99.90;;;;;;5000392;28;20555;-67
2024/03/28 06:47:58;;;;;;;7.43;1.13;;;5.80;99.90;;;;;;4981603;28;20054;-67
2024/03/28 06:50:24;;;;;;;7.85;0.90;;;5.90;99.90;;;;;;4996598;28;20138;-66
2024/03/28 06:52:51;;;;;;;8.80;1.77;;;5.90;99.90;;;;;;5001465;28;20155;-66
2024/03/28 06:55:17;;;;;;;4.22;0.77;;;6.00;99.90;;;;;;4995371;28;20075;-67
2024/03/28 06:57:43;;;;;;;4.07;0.68;;;6.00;99.90;;;;;;4999305;28;20081;-67
2024/03/28 07:00:09;;;;;;;7.88;2.80;;;5.90;99.90;;;;;;4997476;28;20116;-67
2024/03/28 07:02:35;;;;;;;7.50;0.95;;;5.90;99.90;;;;;;5002018;28;20057;-67
2024/03/28 07:05:02;;;;;;;3.60;0.85;;;6.00;99.90;;;;;;4996411;28;20065;-66
2024/03/28 07:07:29;;;;;;;3.28;0.40;;;6.10;99.90;;;;;;4994555;28;21131;-66
2024/03/28 07:09:58;;;;;;;4.25;0.57;;;6.10;99.90;;;;;;5000777;28;20065;-66
2024/03/28 07:12:25;;;;;;;8.35;1.83;;;6.20;99.90;;;;;;4999948;28;20049;-66
2024/03/28 07:14:51;;;;;;;5.68;1.38;;;6.20;99.90;;;;;;4999276;28;20057;-66
2024/03/28 07:17:16;;;;;;;4.28;0.90;;;6.30;99.90;;;;;;4999640;28;20057;-67
2024/03/28 07:19:42;;;;;;;5.97;0.90;;;6.30;99.90;;;;;;4993301;28;20058;-66
2024/03/28 07:22:08;;;;;;;1.80;0.82;;;6.30;99.90;;;;;;4994416;28;20053;-66
2024/03/28 07:24:35;;;;;;;2.55;0.98;;;6.30;99.90;;;;;;4998084;28;20064;-66
2024/03/28 07:27:01;;;;;;;2.17;0.57;;;6.40;99.90;;;;;;4999202;28;20618;-67
2024/03/28 07:29:28;;;;;;;3.28;0.85;;;6.40;99.90;;;;;;4995214;28;20853;-66
2024/03/28 07:31:54;;;;;;;3.97;1.02;;;6.50;99.90;;;;;;4999665;28;20484;-67
2024/03/28 07:34:19;;;;;;;3.70;0.65;;;6.40;99.90;;;;;;4982905;28;20057;-67
2024/03/28 07:36:45;;;;;;;8.95;2.53;;;6.40;99.90;;;;;;4995499;28;20121;-67
2024/03/28 07:39:13;;;;;;;4.68;0.80;;;6.40;99.90;;;;;;4979618;28;20046;-67
2024/03/28 07:41:41;;;;;;;4.25;0.85;;;6.50;99.90;;;;;;4994376;28;20046;-68
2024/03/28 07:44:07;;;;;;;4.07;0.90;;;6.40;99.90;;;;;;4994766;28;20153;-67
2024/03/28 07:46:33;;;;;;;5.53;0.65;;;6.50;99.90;;;;;;4980234;28;20075;-67
2024/03/28 07:48:59;;;;;;;8.15;1.25;;;6.50;99.90;;;;;;4996490;28;20129;-67
2024/03/28 07:51:24;;;;;;;2.60;1.20;;;6.50;99.90;;;;;;4996903;28;20637;-68
2024/03/28 07:53:52;;;;;;;3.05;0.57;;;6.40;99.90;;;;;;5001424;28;20389;-67
2024/03/28 07:56:19;;;;;;;7.03;0.50;;;6.50;99.90;;;;;;4982698;28;20046;-68
2024/03/28 07:58:45;;;;;;;6.78;0.50;;;6.40;99.90;;;;;;4980518;28;20507;-68
2024/03/28 08:01:11;;;;;;;6.13;1.05;;;6.50;99.90;;;;;;4983721;28;20501;-69
2024/03/28 08:03:37;;;;;;;1.23;0.57;;;6.40;99.90;;;;;;4991766;28;20508;-68
2024/03/28 08:06:07;;;;;;;2.13;0.57;;;6.40;99.90;;;;;;4996580;28;20049;-69
2024/03/28 08:08:37;;;;;;;1.58;0.38;;;6.30;99.90;;;;;;5009862;28;20782;-67
2024/03/28 08:11:04;;;;;;;4.30;0.52;;;6.20;99.90;;;;;;4985205;28;20076;-69
2024/03/28 08:13:31;;;;;;;0.93;0.45;;;6.30;99.90;;;;;;4992650;28;20057;-67
2024/03/28 08:15:57;;;;;;;4.25;0.70;;;6.40;99.90;;;;;;4977301;28;20111;-67
2024/03/28 08:18:23;;;;;;;5.03;0.60;;;6.40;99.90;;;;;;4996929;28;20132;-67
2024/03/28 08:20:48;;;;;;;2.22;0.63;;;6.50;99.90;;;;;;4984294;28;20064;-67
2024/03/28 08:23:14;;;;;;;5.00;0.47;;;6.40;99.90;;;;;;4995996;28;20054;-66
2024/03/28 08:25:40;;;;;;;1.05;0.50;;;6.40;99.90;;;;;;4995360;28;20050;-66
2024/03/28 08:28:09;;;;;;;1.40;0.38;;;6.20;99.90;;;;;;4998799;28;20061;-67
2024/03/28 08:30:36;;;;;;;1.35;0.40;;;6.10;99.90;;;;;;5024314;28;20504;-64
2024/03/28 08:33:03;;;;;;;1.17;0.60;;;6.10;99.90;;;;;;4999927;28;20053;-67
2024/03/28 08:35:33;;;;;;;6.05;0.63;;;6.20;99.90;;;;;;5019646;28;20076;-66
2024/03/28 08:37:59;;;;;;;1.33;0.50;;;6.20;99.90;;;;;;5019746;28;20106;-67
2024/03/28 08:40:25;;;;;;;5.68;0.60;;;6.30;99.90;;;;;;5020031;28;20045;-66
2024/03/28 08:42:51;;;;;;;2.47;0.73;;;6.50;99.90;;;;;;5013166;28;20053;-66
2024/03/28 08:45:18;;;;;;;3.00;0.65;;;6.60;99.90;;;;;;5020283;28;20053;-67
2024/03/28 08:47:45;;;;;;;5.38;0.95;;;6.60;99.90;;;;;;5017500;28;20103;-66
2024/03/28 08:50:12;;;;;;;2.22;0.77;;;6.80;99.90;;;;;;5005530;28;20056;-67
2024/03/28 08:52:38;;;;;;;3.47;0.82;;;7.00;99.90;;;;;;5018188;28;20053;-66
2024/03/28 08:55:05;;;;;;;5.55;1.20;;;7.10;99.90;;;;;;5021415;28;20055;-67
2024/03/28 08:57:31;;;;;;;3.53;0.93;;;7.20;99.90;;;;;;5018539;28;20060;-67
2024/03/28 08:59:57;;;;;;;7.22;1.75;;;7.20;99.90;;;;;;5020130;28;20045;-67
2024/03/28 09:02:27;;;;;;;5.35;1.30;;;7.20;99.90;;;;;;5005385;28;20049;-66
2024/03/28 09:04:52;;;;;;;3.17;0.93;;;7.20;99.90;;;;;;5017735;28;20049;-67
2024/03/28 09:07:19;;;;;;;4.38;1.30;;;7.30;99.90;;;;;;5024585;28;20057;-68
2024/03/28 09:09:44;;;;;;;6.63;1.90;;;7.40;99.90;;;;;;5035910;28;20048;-65
2024/03/28 09:12:13;;;;;;;4.32;1.00;;;7.40;99.90;;;;;;5024500;28;20067;-67
2024/03/28 09:14:39;;;;;;;7.47;1.02;;;7.40;99.90;;;;;;5014617;28;20068;-67
2024/03/28 09:17:07;;;;;;;11.38;1.38;;;7.40;99.90;;;;;;5007431;28;20431;-67
2024/03/28 09:19:34;;;;;;;8.90;1.10;;;7.50;99.90;;;;;;5022820;28;20041;-65
2024/03/28 09:22:01;;;;;;;5.88;1.80;;;7.70;99.90;;;;;;5027276;28;20048;-68
2024/03/28 09:24:27;;;;;;;9.85;1.50;;;7.90;99.90;;;;;;5039454;28;20464;-66
2024/03/28 09:26:53;;;;;;;5.47;1.35;;;8.00;99.90;;;;;;5025705;28;20048;-66
2024/03/28 09:29:22;;;;;;;11.80;1.67;;;8.20;99.90;;;;;;5013527;28;20057;-67
2024/03/28 09:31:48;;;;;;;10.05;2.35;;;8.50;99.90;;;;;;5016303;28;20049;-66
2024/03/28 09:34:17;;;;;;;8.23;1.55;;;8.80;99.90;;;;;;5010451;28;20053;-66
2024/03/28 09:36:43;;;;;;;9.35;1.48;;;9.20;99.90;;;;;;5026473;28;20681;-67
2024/03/28 09:39:12;;;;;;;6.07;1.17;;;9.10;99.90;;;;;;5027244;28;20076;-67
2024/03/28 09:41:39;;;;;;;8.10;1.42;;;8.80;99.90;;;;;;5021820;28;20064;-66
2024/03/28 09:44:06;;;;;;;7.97;1.08;;;8.80;99.90;;;;;;5002510;28;20059;-66
2024/03/28 09:46:36;;;;;;;5.30;1.02;;;9.00;99.90;;;;;;5007335;28;20056;-67
2024/03/28 09:49:02;;;;;;;10.18;1.38;;;8.90;99.90;;;;;;5009239;28;20044;-67
2024/03/28 09:51:28;;;;;;;7.82;1.10;;;9.00;99.90;;;;;;5011233;28;20086;-66
2024/03/28 09:53:56;;;;;;;13.38;2.00;;;9.00;99.90;;;;;;5022526;28;20518;-67
2024/03/28 09:56:23;;;;;;;12.65;2.97;;;9.20;99.90;;;;;;5018308;28;20057;-65
2024/03/28 09:58:49;;;;;;;11.15;1.17;;;9.20;99.90;;;;;;5000979;28;20057;-67
2024/03/28 10:01:15;;;;;;;8.27;1.70;;;9.00;99.90;;;;;;5026095;28;20053;-66
2024/03/28 10:03:42;;;;;;;9.10;2.08;;;9.00;99.90;;;;;;4995295;28;20056;-67
2024/03/28 10:06:08;;;;;;;13.00;1.40;;;9.00;99.90;;;;;;5013538;28;20603;-67
2024/03/28 10:08:34;;;;;;;8.80;1.63;;;8.90;99.90;;;;;;5025142;28;20050;-67
2024/03/28 10:11:00;;;;;;;9.57;1.50;;;8.90;99.90;;;;;;5010790;28;20045;-67
2024/03/28 10:13:34;;;;;;;10.25;1.73;;;8.90;99.90;;;;;;5024162;28;20384;-67
2024/03/28 10:16:01;;;;;;;6.70;1.38;;;9.00;99.90;;;;;;5033133;28;20053;-68
2024/03/28 10:18:27;;;;;;;12.00;1.55;;;9.00;99.90;;;;;;4659262;28;9999819;-67
2024/03/28 10:20:57;;;;;;;7.57;1.75;;;8.90;99.90;;;;;;4986922;28;20061;-67
2024/03/28 10:23:23;;;;;;;11.52;3.25;;;9.00;99.90;;;;;;5023108;28;20049;-68
2024/03/28 10:25:51;;;;;;;8.27;1.48;;;9.00;99.90;;;;;;5035262;28;20067;-68
2024/03/28 10:28:24;;;;;;;7.38;1.65;;;9.10;99.90;;;;;;5019405;28;20071;-68
2024/03/28 10:30:53;;;;;;;6.90;1.33;;;9.10;99.90;;;;;;5005250;28;20467;-68
2024/03/28 10:33:19;;;;;;;8.65;1.73;;;9.10;99.90;;;;;;5019632;28;20048;-67
2024/03/28 10:36:02;;;;;;;5.40;1.40;;;9.20;99.90;;;;;;5021922;28;20606;-67
2024/03/28 10:38:28;;;;;;;14.43;2.03;;;9.40;99.90;;;;;;5024137;28;20053;-68
2024/03/28 10:40:55;;;;;;;6.15;1.70;;;9.50;99.90;;;;;;5026887;28;20526;-68
2024/03/28 10:43:25;;;;;;;11.93;1.58;;;9.50;99.90;;;;;;5010655;28;20053;-68
2024/03/28 10:45:59;;;;;;;5.95;2.08;;;9.40;99.90;;;;;;5023367;28;20419;-68
2024/03/28 10:48:26;;;;;;;6.53;1.70;;;9.50;99.90;;;;;;5001659;28;20507;-68
2024/03/28 10:51:04;;;;;;;7.88;1.60;;;9.50;99.90;;;;;;5010128;28;20037;-67
2024/03/28 10:53:46;;;;;;;9.77;1.77;;;9.60;99.90;;;;;;5021350;28;20437;-67
2024/03/28 10:56:12;;;;;;;11.45;1.75;;;9.60;99.90;;;;;;5011421;28;20075;-67
2024/03/28 10:58:38;;;;;;;10.02;1.30;;;9.30;99.90;;;;;;5016846;28;20064;-67
2024/03/28 11:01:05;;;;;;;7.78;1.60;;;9.00;99.90;;;;;;5018716;28;20049;-67
2024/03/28 11:03:31;;;;;;;11.27;2.00;;;9.00;99.90;;;;;;5018516;28;20049;-67
2024/03/28 11:05:58;;;;;;;9.68;1.48;;;9.10;99.90;;;;;;5019017;28;20080;-67
2024/03/28 11:08:28;;;;;;;9.57;1.58;;;9.20;99.90;;;;;;5005214;28;20049;-68
2024/03/28 11:11:04;;;;;;;15.13;3.47;;;9.30;99.90;;;;;;5024484;28;20507;-68
2024/03/28 11:13:30;;;;;;;17.30;1.63;;;9.00;99.90;;;;;;5010793;28;20618;-69
2024/03/28 11:16:02;;;;;;;14.43;1.92;;;8.90;99.90;;;;;;5018795;28;20045;-67
2024/03/28 11:18:28;;;;;;;10.27;2.15;;;8.90;99.90;;;;;;5022727;28;20519;-67
2024/03/28 11:20:54;;;;;;;12.30;1.75;;;8.90;99.90;;;;;;5004511;28;20064;-67
2024/03/28 11:23:20;;;;;;;9.25;2.33;;;8.80;99.90;;;;;;5018196;28;20045;-68
2024/03/28 11:25:47;;;;;;;10.38;1.75;;;8.70;99.90;;;;;;5025778;28;20459;-68
2024/03/28 11:28:13;;;;;;;9.38;1.63;;;8.50;99.90;;;;;;5039005;28;20061;-68
2024/03/28 11:30:51;;;;;;;6.88;0.98;;;8.40;99.90;;;;;;5024112;28;20687;-68
2024/03/28 11:33:27;;;;;;;4.90;1.30;;;8.40;99.90;;;;;;5019611;28;20060;-66
2024/03/28 11:35:57;;;;;;;6.03;1.10;;;8.20;99.90;;;;;;5009677;28;20053;-66
2024/03/28 11:38:22;;;;;;;10.57;2.30;;;8.10;99.90;;;;;;5016856;28;20491;-68
2024/03/28 11:40:48;;;;;;;10.10;1.88;;;8.10;99.90;;;;;;4999639;28;20052;-66
2024/03/28 11:43:15;;;;;;;7.35;1.15;;;8.00;99.90;;;;;;5006439;28;20067;-67
2024/03/28 11:45:57;;;;;;;4.53;1.00;;;8.00;99.90;;;;;;5024696;28;20635;-68
2024/03/28 11:48:24;;;;;;;7.13;1.38;;;8.00;99.90;;;;;;5027710;28;20450;-67
2024/03/28 11:50:50;;;;;;;12.00;1.33;;;7.90;99.90;;;;;;5006633;28;20052;-67
2024/03/28 11:53:16;;;;;;;7.82;1.38;;;7.90;99.90;;;;;;5027437;28;20060;-67
2024/03/28 11:55:43;;;;;;;12.73;1.38;;;7.70;99.90;;;;;;5027148;28;20061;-67
2024/03/28 11:58:20;;;;;;;9.18;1.67;;;7.60;99.90;;;;;;5005874;28;20049;-67
2024/03/28 12:00:46;;;;;;;6.03;1.30;;;7.60;99.90;;;;;;5008651;28;20053;-68
2024/03/28 12:03:13;;;;;;;7.97;1.48;;;7.50;99.90;;;;;;5039603;28;20059;-68
2024/03/28 12:05:39;;;;;;;14.18;1.67;;;7.40;99.90;;;;;;5019986;28;20053;-68
2024/03/28 12:08:05;;;;;;;8.00;1.75;;;7.30;99.90;;;;;;4984967;28;20053;-69
2024/03/28 12:10:32;;;;;;;8.82;1.50;;;7.30;99.90;;;;;;5009127;28;20495;-68
2024/03/28 12:13:01;;;;;;;8.13;1.83;;;7.30;99.90;;;;;;5017738;28;20052;-68
2024/03/28 12:15:27;;;;;;;16.17;2.10;;;7.30;99.90;;;;;;5001487;28;20049;-68
2024/03/28 12:17:56;;;;;;;15.95;2.83;;;7.20;99.90;;;;;;5018912;28;20049;-68
2024/03/28 12:20:23;;;;;;;11.80;4.25;;;7.30;99.90;;;;;;5019210;28;20057;-67
2024/03/28 12:22:57;;;;;;;10.45;2.60;;;7.30;99.90;;;;;;4992939;28;20065;-68
2024/03/28 12:25:23;;;;;;;13.38;2.08;;;7.40;99.90;;;;;;5002820;28;20416;-67
2024/03/28 12:28:04;;;;;;;16.75;2.67;;;7.40;99.90;;;;;;5020228;28;20144;-68
2024/03/28 12:30:30;;;;;;;15.45;3.05;;;7.40;99.90;;;;;;4998002;28;20123;-67
2024/03/28 12:33:05;;;;;;;22.85;3.30;;;7.50;99.90;;;;;;5005784;28;20270;-68
2024/03/28 12:35:33;;;;;;;10.38;2.28;;;7.50;99.90;;;;;;5000817;28;20218;-69
2024/03/28 12:37:59;;;;;;;12.43;2.97;;;7.50;99.90;;;;;;5021342;28;20487;-68
2024/03/28 12:40:25;;;;;;;11.98;2.25;;;7.60;99.90;;;;;;5006492;28;20060;-68
2024/03/28 12:42:52;;;;;;;15.70;4.00;;;7.60;99.90;;;;;;5023551;28;20499;-66
2024/03/28 12:45:20;;;;;;;24.45;2.63;;;7.60;99.90;;;;;;5023439;28;20258;-67
2024/03/28 12:47:46;;;;;;;18.42;3.60;;;7.70;99.90;;;;;;5027641;28;20360;-67
2024/03/28 12:50:13;;;;;;;15.63;3.35;;;7.80;99.90;;;;;;5023826;28;20277;-66
2024/03/28 12:52:51;;;;;;;17.33;2.30;;;7.90;99.90;;;;;;5021246;28;20060;-65
2024/03/28 12:55:18;;;;;;;16.95;2.72;;;7.90;99.90;;;;;;5014750;28;20484;-66
2024/03/28 12:57:47;;;;;;;22.63;3.08;;;8.00;99.90;;;;;;5016387;28;20049;-66
2024/03/28 13:00:13;;;;;;;17.13;3.22;;;8.20;99.90;;;;;;5021926;28;20061;-67
2024/03/28 13:02:39;;;;;;;22.55;2.90;;;8.30;99.90;;;;;;5016414;28;20659;-67